sensor_id;sensor_type;location;lat;lon;timestamp;P1;durP1;ratioP1;P2;durP2;ratioP2
20709;SDS011;10516;51.518;9.864;2022-11-13T00:00:26;11.32;;;6.60;;
20709;SDS011;10516;51.518;9.864;2022-11-13T00:02:51;5.95;;;5.18;;
20709;SDS011;10516;51.518;9.864;2022-11-13T00:05:17;8.00;;;6.30;;
20709;SDS011;10516;51.518;9.864;2022-11-13T00:07:42;10.68;;;6.78;;
20709;SDS011;10516;51.518;9.864;2022-11-13T00:10:08;6.75;;;5.85;;
20709;SDS011;10516;51.518;9.864;2022-11-13T00:12:33;9.13;;;6.63;;
20709;SDS011;10516;51.518;9.864;2022-11-13T00:14:58;8.23;;;5.72;;
20709;SDS011;10516;51.518;9.864;2022-11-13T00:17:24;6.65;;;5.53;;
20709;SDS011;10516;51.518;9.864;2022-11-13T00:19:49;6.47;;;5.22;;
20709;SDS011;10516;51.518;9.864;2022-11-13T00:22:15;6.75;;;5.28;;
20709;SDS011;10516;51.518;9.864;2022-11-13T00:24:40;7.72;;;5.70;;
20709;SDS011;10516;51.518;9.864;2022-11-13T00:27:05;8.32;;;5.63;;
20709;SDS011;10516;51.518;9.864;2022-11-13T00:29:31;5.43;;;4.85;;
20709;SDS011;10516;51.518;9.864;2022-11-13T00:31:56;7.43;;;5.63;;
20709;SDS011;10516;51.518;9.864;2022-11-13T00:34:22;7.70;;;5.57;;
20709;SDS011;10516;51.518;9.864;2022-11-13T00:36:47;6.90;;;5.35;;
20709;SDS011;10516;51.518;9.864;2022-11-13T00:39:12;6.28;;;5.35;;
20709;SDS011;10516;51.518;9.864;2022-11-13T00:41:38;7.18;;;5.53;;
20709;SDS011;10516;51.518;9.864;2022-11-13T00:44:03;8.45;;;5.88;;
20709;SDS011;10516;51.518;9.864;2022-11-13T00:46:29;6.47;;;5.03;;
20709;SDS011;10516;51.518;9.864;2022-11-13T00:48:54;8.55;;;5.78;;
20709;SDS011;10516;51.518;9.864;2022-11-13T00:51:20;5.75;;;5.15;;
20709;SDS011;10516;51.518;9.864;2022-11-13T00:53:46;7.82;;;5.72;;
20709;SDS011;10516;51.518;9.864;2022-11-13T00:56:11;13.07;;;7.60;;
20709;SDS011;10516;51.518;9.864;2022-11-13T00:58:37;8.32;;;5.95;;
20709;SDS011;10516;51.518;9.864;2022-11-13T01:01:06;8.32;;;5.65;;
20709;SDS011;10516;51.518;9.864;2022-11-13T01:03:34;5.38;;;4.35;;
20709;SDS011;10516;51.518;9.864;2022-11-13T01:06:00;6.90;;;4.68;;
20709;SDS011;10516;51.518;9.864;2022-11-13T01:08:25;7.97;;;5.15;;
20709;SDS011;10516;51.518;9.864;2022-11-13T01:10:51;9.23;;;6.35;;
20709;SDS011;10516;51.518;9.864;2022-11-13T01:13:16;7.68;;;5.70;;
20709;SDS011;10516;51.518;9.864;2022-11-13T01:15:42;6.30;;;5.60;;
20709;SDS011;10516;51.518;9.864;2022-11-13T01:18:09;6.60;;;5.38;;
20709;SDS011;10516;51.518;9.864;2022-11-13T01:20:35;7.88;;;6.20;;
20709;SDS011;10516;51.518;9.864;2022-11-13T01:23:01;6.60;;;5.88;;
20709;SDS011;10516;51.518;9.864;2022-11-13T01:25:27;9.30;;;5.90;;
20709;SDS011;10516;51.518;9.864;2022-11-13T01:27:54;8.35;;;6.63;;
20709;SDS011;10516;51.518;9.864;2022-11-13T01:30:21;8.88;;;5.97;;
20709;SDS011;10516;51.518;9.864;2022-11-13T01:32:46;9.70;;;6.07;;
20709;SDS011;10516;51.518;9.864;2022-11-13T01:35:11;8.48;;;5.63;;
20709;SDS011;10516;51.518;9.864;2022-11-13T01:37:37;7.88;;;6.47;;
20709;SDS011;10516;51.518;9.864;2022-11-13T01:40:02;9.45;;;6.45;;
20709;SDS011;10516;51.518;9.864;2022-11-13T01:42:28;7.18;;;6.18;;
20709;SDS011;10516;51.518;9.864;2022-11-13T01:44:58;10.32;;;7.05;;
20709;SDS011;10516;51.518;9.864;2022-11-13T01:47:25;8.45;;;5.65;;
20709;SDS011;10516;51.518;9.864;2022-11-13T01:49:52;7.07;;;5.47;;
20709;SDS011;10516;51.518;9.864;2022-11-13T01:52:22;10.13;;;6.50;;
20709;SDS011;10516;51.518;9.864;2022-11-13T01:55:05;7.65;;;6.22;;
20709;SDS011;10516;51.518;9.864;2022-11-13T01:57:35;7.00;;;6.30;;
20709;SDS011;10516;51.518;9.864;2022-11-13T02:00:02;12.38;;;6.80;;
20709;SDS011;10516;51.518;9.864;2022-11-13T02:02:33;12.27;;;7.32;;
20709;SDS011;10516;51.518;9.864;2022-11-13T02:04:58;10.88;;;8.20;;
20709;SDS011;10516;51.518;9.864;2022-11-13T02:07:24;9.13;;;7.38;;
20709;SDS011;10516;51.518;9.864;2022-11-13T02:09:54;9.45;;;7.75;;
20709;SDS011;10516;51.518;9.864;2022-11-13T02:12:27;11.55;;;7.60;;
20709;SDS011;10516;51.518;9.864;2022-11-13T02:14:58;9.13;;;7.43;;
20709;SDS011;10516;51.518;9.864;2022-11-13T02:17:30;9.63;;;6.93;;
20709;SDS011;10516;51.518;9.864;2022-11-13T02:20:02;9.48;;;6.90;;
20709;SDS011;10516;51.518;9.864;2022-11-13T02:25:32;7.55;;;6.40;;
20709;SDS011;10516;51.518;9.864;2022-11-13T02:27:58;6.20;;;5.63;;
20709;SDS011;10516;51.518;9.864;2022-11-13T02:30:28;9.48;;;7.18;;
20709;SDS011;10516;51.518;9.864;2022-11-13T02:32:56;7.05;;;6.00;;
20709;SDS011;10516;51.518;9.864;2022-11-13T02:35:29;9.23;;;7.38;;
20709;SDS011;10516;51.518;9.864;2022-11-13T02:37:58;6.45;;;5.65;;
20709;SDS011;10516;51.518;9.864;2022-11-13T02:40:26;6.82;;;6.00;;
20709;SDS011;10516;51.518;9.864;2022-11-13T02:42:51;8.07;;;5.95;;
20709;SDS011;10516;51.518;9.864;2022-11-13T02:45:18;8.40;;;6.25;;
20709;SDS011;10516;51.518;9.864;2022-11-13T02:47:43;7.00;;;6.25;;
20709;SDS011;10516;51.518;9.864;2022-11-13T02:50:09;6.80;;;6.00;;
20709;SDS011;10516;51.518;9.864;2022-11-13T02:52:35;7.85;;;6.47;;
20709;SDS011;10516;51.518;9.864;2022-11-13T02:55:01;6.25;;;5.32;;
20709;SDS011;10516;51.518;9.864;2022-11-13T02:57:26;7.50;;;5.90;;
20709;SDS011;10516;51.518;9.864;2022-11-13T02:59:52;9.63;;;5.80;;
20709;SDS011;10516;51.518;9.864;2022-11-13T03:02:17;7.95;;;6.47;;
20709;SDS011;10516;51.518;9.864;2022-11-13T03:04:42;13.73;;;7.72;;
20709;SDS011;10516;51.518;9.864;2022-11-13T03:07:09;13.30;;;7.47;;
20709;SDS011;10516;51.518;9.864;2022-11-13T03:09:34;11.57;;;7.30;;
20709;SDS011;10516;51.518;9.864;2022-11-13T03:12:00;13.57;;;9.15;;
20709;SDS011;10516;51.518;9.864;2022-11-13T03:14:25;19.38;;;11.73;;
20709;SDS011;10516;51.518;9.864;2022-11-13T03:16:50;11.88;;;9.30;;
20709;SDS011;10516;51.518;9.864;2022-11-13T03:19:16;37.20;;;21.10;;
20709;SDS011;10516;51.518;9.864;2022-11-13T03:21:41;35.58;;;17.08;;
20709;SDS011;10516;51.518;9.864;2022-11-13T03:24:06;12.77;;;8.60;;
20709;SDS011;10516;51.518;9.864;2022-11-13T03:26:32;15.55;;;9.00;;
20709;SDS011;10516;51.518;9.864;2022-11-13T03:28:57;14.50;;;8.57;;
20709;SDS011;10516;51.518;9.864;2022-11-13T03:31:23;15.75;;;9.00;;
20709;SDS011;10516;51.518;9.864;2022-11-13T03:33:50;12.80;;;7.63;;
20709;SDS011;10516;51.518;9.864;2022-11-13T03:36:16;10.80;;;7.53;;
20709;SDS011;10516;51.518;9.864;2022-11-13T03:38:42;12.38;;;6.72;;
20709;SDS011;10516;51.518;9.864;2022-11-13T03:41:07;10.43;;;6.85;;
20709;SDS011;10516;51.518;9.864;2022-11-13T03:43:32;9.50;;;6.50;;
20709;SDS011;10516;51.518;9.864;2022-11-13T03:45:58;9.68;;;6.55;;
20709;SDS011;10516;51.518;9.864;2022-11-13T03:48:23;7.93;;;5.88;;
20709;SDS011;10516;51.518;9.864;2022-11-13T03:50:50;9.85;;;6.25;;
20709;SDS011;10516;51.518;9.864;2022-11-13T03:53:17;11.18;;;5.90;;
20709;SDS011;10516;51.518;9.864;2022-11-13T03:55:43;7.20;;;5.63;;
20709;SDS011;10516;51.518;9.864;2022-11-13T03:58:09;9.90;;;5.70;;
20709;SDS011;10516;51.518;9.864;2022-11-13T04:00:35;9.68;;;6.40;;
20709;SDS011;10516;51.518;9.864;2022-11-13T04:03:01;7.97;;;5.93;;
20709;SDS011;10516;51.518;9.864;2022-11-13T04:05:27;5.93;;;5.18;;
20709;SDS011;10516;51.518;9.864;2022-11-13T04:07:52;7.43;;;6.18;;
20709;SDS011;10516;51.518;9.864;2022-11-13T04:10:18;10.63;;;6.05;;
20709;SDS011;10516;51.518;9.864;2022-11-13T04:12:44;10.00;;;6.18;;
20709;SDS011;10516;51.518;9.864;2022-11-13T04:15:09;8.80;;;5.97;;
20709;SDS011;10516;51.518;9.864;2022-11-13T04:17:35;6.55;;;5.22;;
20709;SDS011;10516;51.518;9.864;2022-11-13T04:20:00;8.65;;;5.60;;
20709;SDS011;10516;51.518;9.864;2022-11-13T04:22:26;6.38;;;5.05;;
20709;SDS011;10516;51.518;9.864;2022-11-13T04:24:51;6.47;;;4.85;;
20709;SDS011;10516;51.518;9.864;2022-11-13T04:27:16;10.48;;;6.15;;
20709;SDS011;10516;51.518;9.864;2022-11-13T04:29:42;8.98;;;5.78;;
20709;SDS011;10516;51.518;9.864;2022-11-13T04:32:07;10.75;;;5.82;;
20709;SDS011;10516;51.518;9.864;2022-11-13T04:34:34;6.40;;;4.85;;
20709;SDS011;10516;51.518;9.864;2022-11-13T04:36:59;7.60;;;5.35;;
20709;SDS011;10516;51.518;9.864;2022-11-13T04:39:24;7.20;;;5.15;;
20709;SDS011;10516;51.518;9.864;2022-11-13T04:41:50;9.60;;;6.35;;
20709;SDS011;10516;51.518;9.864;2022-11-13T04:44:34;11.15;;;6.53;;
20709;SDS011;10516;51.518;9.864;2022-11-13T04:46:59;6.50;;;4.88;;
20709;SDS011;10516;51.518;9.864;2022-11-13T04:49:25;11.35;;;5.28;;
20709;SDS011;10516;51.518;9.864;2022-11-13T04:51:50;10.73;;;6.03;;
20709;SDS011;10516;51.518;9.864;2022-11-13T04:54:15;7.07;;;5.47;;
20709;SDS011;10516;51.518;9.864;2022-11-13T04:56:41;6.95;;;5.13;;
20709;SDS011;10516;51.518;9.864;2022-11-13T04:59:06;7.13;;;4.70;;
20709;SDS011;10516;51.518;9.864;2022-11-13T05:01:33;6.82;;;5.30;;
20709;SDS011;10516;51.518;9.864;2022-11-13T05:03:59;6.25;;;5.07;;
20709;SDS011;10516;51.518;9.864;2022-11-13T05:06:24;7.70;;;5.15;;
20709;SDS011;10516;51.518;9.864;2022-11-13T05:08:49;8.35;;;4.63;;
20709;SDS011;10516;51.518;9.864;2022-11-13T05:11:15;6.78;;;4.75;;
20709;SDS011;10516;51.518;9.864;2022-11-13T05:13:40;6.40;;;4.68;;
20709;SDS011;10516;51.518;9.864;2022-11-13T05:16:07;6.32;;;4.20;;
20709;SDS011;10516;51.518;9.864;2022-11-13T05:18:35;8.93;;;5.43;;
20709;SDS011;10516;51.518;9.864;2022-11-13T05:21:01;6.43;;;4.60;;
20709;SDS011;10516;51.518;9.864;2022-11-13T05:23:28;5.07;;;4.57;;
20709;SDS011;10516;51.518;9.864;2022-11-13T05:26:12;6.03;;;5.00;;
20709;SDS011;10516;51.518;9.864;2022-11-13T05:28:38;6.10;;;4.95;;
20709;SDS011;10516;51.518;9.864;2022-11-13T05:31:04;5.82;;;5.10;;
20709;SDS011;10516;51.518;9.864;2022-11-13T05:33:32;5.72;;;4.70;;
20709;SDS011;10516;51.518;9.864;2022-11-13T05:36:02;6.80;;;5.00;;
20709;SDS011;10516;51.518;9.864;2022-11-13T05:38:28;7.00;;;5.22;;
20709;SDS011;10516;51.518;9.864;2022-11-13T05:40:59;6.25;;;5.25;;
20709;SDS011;10516;51.518;9.864;2022-11-13T05:43:27;6.63;;;4.65;;
20709;SDS011;10516;51.518;9.864;2022-11-13T05:46:03;6.78;;;4.95;;
20709;SDS011;10516;51.518;9.864;2022-11-13T05:48:34;6.43;;;4.47;;
20709;SDS011;10516;51.518;9.864;2022-11-13T05:51:17;10.38;;;5.30;;
20709;SDS011;10516;51.518;9.864;2022-11-13T05:53:44;6.85;;;4.63;;
20709;SDS011;10516;51.518;9.864;2022-11-13T05:56:29;9.55;;;6.22;;
20709;SDS011;10516;51.518;9.864;2022-11-13T05:58:57;8.55;;;4.53;;
20709;SDS011;10516;51.518;9.864;2022-11-13T06:01:25;12.68;;;7.85;;
20709;SDS011;10516;51.518;9.864;2022-11-13T06:03:53;11.57;;;6.80;;
20709;SDS011;10516;51.518;9.864;2022-11-13T06:06:21;15.88;;;8.40;;
20709;SDS011;10516;51.518;9.864;2022-11-13T06:08:47;12.60;;;7.63;;
20709;SDS011;10516;51.518;9.864;2022-11-13T06:11:15;12.27;;;6.45;;
20709;SDS011;10516;51.518;9.864;2022-11-13T06:13:42;8.88;;;5.47;;
20709;SDS011;10516;51.518;9.864;2022-11-13T06:16:09;8.63;;;5.75;;
20709;SDS011;10516;51.518;9.864;2022-11-13T06:18:37;13.65;;;5.45;;
20709;SDS011;10516;51.518;9.864;2022-11-13T06:21:05;5.70;;;5.00;;
20709;SDS011;10516;51.518;9.864;2022-11-13T06:23:35;8.48;;;5.47;;
20709;SDS011;10516;51.518;9.864;2022-11-13T06:26:02;10.27;;;6.00;;
20709;SDS011;10516;51.518;9.864;2022-11-13T06:28:29;5.90;;;4.68;;
20709;SDS011;10516;51.518;9.864;2022-11-13T06:31:00;7.00;;;4.70;;
20709;SDS011;10516;51.518;9.864;2022-11-13T06:33:46;7.47;;;4.90;;
20709;SDS011;10516;51.518;9.864;2022-11-13T06:36:13;5.97;;;4.93;;
20709;SDS011;10516;51.518;9.864;2022-11-13T06:38:43;10.45;;;5.03;;
20709;SDS011;10516;51.518;9.864;2022-11-13T06:41:10;6.95;;;5.03;;
20709;SDS011;10516;51.518;9.864;2022-11-13T06:43:37;7.10;;;4.82;;
20709;SDS011;10516;51.518;9.864;2022-11-13T06:46:03;6.68;;;5.10;;
20709;SDS011;10516;51.518;9.864;2022-11-13T06:48:30;9.23;;;5.88;;
20709;SDS011;10516;51.518;9.864;2022-11-13T06:50:59;9.65;;;4.70;;
20709;SDS011;10516;51.518;9.864;2022-11-13T06:53:26;6.78;;;5.18;;
20709;SDS011;10516;51.518;9.864;2022-11-13T06:55:51;6.03;;;4.43;;
20709;SDS011;10516;51.518;9.864;2022-11-13T06:58:16;7.32;;;4.85;;
20709;SDS011;10516;51.518;9.864;2022-11-13T07:00:42;6.15;;;4.68;;
20709;SDS011;10516;51.518;9.864;2022-11-13T07:03:14;7.22;;;5.28;;
20709;SDS011;10516;51.518;9.864;2022-11-13T07:05:41;6.15;;;5.50;;
20709;SDS011;10516;51.518;9.864;2022-11-13T07:08:06;6.35;;;4.72;;
20709;SDS011;10516;51.518;9.864;2022-11-13T07:10:31;6.63;;;5.20;;
20709;SDS011;10516;51.518;9.864;2022-11-13T07:12:58;5.90;;;4.97;;
20709;SDS011;10516;51.518;9.864;2022-11-13T07:15:24;6.35;;;4.93;;
20709;SDS011;10516;51.518;9.864;2022-11-13T07:17:49;5.53;;;4.63;;
20709;SDS011;10516;51.518;9.864;2022-11-13T07:20:15;7.22;;;4.07;;
20709;SDS011;10516;51.518;9.864;2022-11-13T07:22:40;7.53;;;5.40;;
20709;SDS011;10516;51.518;9.864;2022-11-13T07:25:06;6.80;;;4.63;;
20709;SDS011;10516;51.518;9.864;2022-11-13T07:27:32;8.95;;;6.97;;
20709;SDS011;10516;51.518;9.864;2022-11-13T07:29:57;6.47;;;4.80;;
20709;SDS011;10516;51.518;9.864;2022-11-13T07:32:23;6.50;;;5.05;;
20709;SDS011;10516;51.518;9.864;2022-11-13T07:34:49;7.65;;;5.03;;
20709;SDS011;10516;51.518;9.864;2022-11-13T07:37:14;12.57;;;8.85;;
20709;SDS011;10516;51.518;9.864;2022-11-13T07:39:39;7.43;;;5.80;;
20709;SDS011;10516;51.518;9.864;2022-11-13T07:42:05;8.13;;;5.60;;
20709;SDS011;10516;51.518;9.864;2022-11-13T07:44:30;11.45;;;5.82;;
20709;SDS011;10516;51.518;9.864;2022-11-13T07:46:55;8.70;;;5.47;;
20709;SDS011;10516;51.518;9.864;2022-11-13T07:49:21;10.73;;;7.13;;
20709;SDS011;10516;51.518;9.864;2022-11-13T07:51:46;10.93;;;8.52;;
20709;SDS011;10516;51.518;9.864;2022-11-13T07:54:12;14.45;;;9.63;;
20709;SDS011;10516;51.518;9.864;2022-11-13T07:56:37;13.95;;;9.25;;
20709;SDS011;10516;51.518;9.864;2022-11-13T07:59:02;14.35;;;9.55;;
20709;SDS011;10516;51.518;9.864;2022-11-13T08:01:28;29.67;;;15.32;;
20709;SDS011;10516;51.518;9.864;2022-11-13T08:03:53;22.67;;;13.93;;
20709;SDS011;10516;51.518;9.864;2022-11-13T08:06:18;20.30;;;11.77;;
20709;SDS011;10516;51.518;9.864;2022-11-13T08:08:46;15.50;;;11.00;;
20709;SDS011;10516;51.518;9.864;2022-11-13T08:11:12;14.32;;;10.73;;
20709;SDS011;10516;51.518;9.864;2022-11-13T08:13:38;9.93;;;7.10;;
20709;SDS011;10516;51.518;9.864;2022-11-13T08:16:03;9.73;;;6.82;;
20709;SDS011;10516;51.518;9.864;2022-11-13T08:18:29;11.65;;;7.80;;
20709;SDS011;10516;51.518;9.864;2022-11-13T08:20:55;10.10;;;7.25;;
20709;SDS011;10516;51.518;9.864;2022-11-13T08:23:21;9.73;;;7.43;;
20709;SDS011;10516;51.518;9.864;2022-11-13T08:25:47;13.27;;;9.45;;
20709;SDS011;10516;51.518;9.864;2022-11-13T08:28:12;15.32;;;10.10;;
20709;SDS011;10516;51.518;9.864;2022-11-13T08:30:38;15.90;;;10.68;;
20709;SDS011;10516;51.518;9.864;2022-11-13T08:33:06;17.98;;;13.95;;
20709;SDS011;10516;51.518;9.864;2022-11-13T08:35:31;21.80;;;14.93;;
20709;SDS011;10516;51.518;9.864;2022-11-13T08:38:01;18.73;;;14.73;;
20709;SDS011;10516;51.518;9.864;2022-11-13T08:40:27;19.77;;;15.13;;
20709;SDS011;10516;51.518;9.864;2022-11-13T08:42:57;22.67;;;15.23;;
20709;SDS011;10516;51.518;9.864;2022-11-13T08:45:23;20.40;;;13.32;;
20709;SDS011;10516;51.518;9.864;2022-11-13T08:47:49;22.42;;;13.07;;
20709;SDS011;10516;51.518;9.864;2022-11-13T08:50:14;18.85;;;13.13;;
20709;SDS011;10516;51.518;9.864;2022-11-13T08:52:40;16.60;;;9.68;;
20709;SDS011;10516;51.518;9.864;2022-11-13T08:55:05;18.52;;;12.23;;
20709;SDS011;10516;51.518;9.864;2022-11-13T08:57:31;18.27;;;12.32;;
20709;SDS011;10516;51.518;9.864;2022-11-13T08:59:56;12.77;;;10.20;;
20709;SDS011;10516;51.518;9.864;2022-11-13T09:02:22;17.05;;;12.85;;
20709;SDS011;10516;51.518;9.864;2022-11-13T09:04:47;16.73;;;12.32;;
20709;SDS011;10516;51.518;9.864;2022-11-13T09:07:13;23.27;;;13.07;;
20709;SDS011;10516;51.518;9.864;2022-11-13T09:09:38;18.35;;;13.43;;
20709;SDS011;10516;51.518;9.864;2022-11-13T09:12:04;20.75;;;13.68;;
20709;SDS011;10516;51.518;9.864;2022-11-13T09:14:29;19.70;;;13.73;;
20709;SDS011;10516;51.518;9.864;2022-11-13T09:16:54;18.65;;;12.20;;
20709;SDS011;10516;51.518;9.864;2022-11-13T09:19:20;14.98;;;10.88;;
20709;SDS011;10516;51.518;9.864;2022-11-13T09:21:45;17.83;;;11.93;;
20709;SDS011;10516;51.518;9.864;2022-11-13T09:24:11;17.40;;;11.73;;
20709;SDS011;10516;51.518;9.864;2022-11-13T09:26:36;14.85;;;10.93;;
20709;SDS011;10516;51.518;9.864;2022-11-13T09:29:02;14.18;;;11.80;;
20709;SDS011;10516;51.518;9.864;2022-11-13T09:31:28;17.80;;;12.60;;
20709;SDS011;10516;51.518;9.864;2022-11-13T09:33:53;11.55;;;8.85;;
20709;SDS011;10516;51.518;9.864;2022-11-13T09:36:18;11.77;;;9.73;;
20709;SDS011;10516;51.518;9.864;2022-11-13T09:38:44;18.15;;;11.95;;
20709;SDS011;10516;51.518;9.864;2022-11-13T09:41:16;18.30;;;11.85;;
20709;SDS011;10516;51.518;9.864;2022-11-13T09:43:57;11.52;;;9.18;;
20709;SDS011;10516;51.518;9.864;2022-11-13T09:49:03;12.95;;;9.48;;
20709;SDS011;10516;51.518;9.864;2022-11-13T09:51:40;18.58;;;11.43;;
20709;SDS011;10516;51.518;9.864;2022-11-13T09:54:13;16.10;;;10.45;;
20709;SDS011;10516;51.518;9.864;2022-11-13T09:56:39;12.32;;;8.77;;
20709;SDS011;10516;51.518;9.864;2022-11-13T09:59:27;17.80;;;12.90;;
20709;SDS011;10516;51.518;9.864;2022-11-13T10:04:47;20.33;;;12.57;;
20709;SDS011;10516;51.518;9.864;2022-11-13T10:13:02;16.95;;;12.30;;
20709;SDS011;10516;51.518;9.864;2022-11-13T10:15:28;17.98;;;13.05;;
20709;SDS011;10516;51.518;9.864;2022-11-13T10:17:57;15.88;;;11.45;;
20709;SDS011;10516;51.518;9.864;2022-11-13T10:20:33;18.67;;;13.07;;
20709;SDS011;10516;51.518;9.864;2022-11-13T10:23:14;15.82;;;12.43;;
20709;SDS011;10516;51.518;9.864;2022-11-13T10:25:43;16.67;;;12.95;;
20709;SDS011;10516;51.518;9.864;2022-11-13T10:28:14;11.55;;;8.32;;
20709;SDS011;10516;51.518;9.864;2022-11-13T10:30:42;15.43;;;11.80;;
20709;SDS011;10516;51.518;9.864;2022-11-13T10:33:12;18.00;;;10.48;;
20709;SDS011;10516;51.518;9.864;2022-11-13T10:38:37;16.73;;;10.90;;
20709;SDS011;10516;51.518;9.864;2022-11-13T10:41:18;15.20;;;10.30;;
20709;SDS011;10516;51.518;9.864;2022-11-13T10:43:55;18.30;;;13.20;;
20709;SDS011;10516;51.518;9.864;2022-11-13T10:46:28;19.38;;;12.82;;
20709;SDS011;10516;51.518;9.864;2022-11-13T10:48:54;12.60;;;9.40;;
20709;SDS011;10516;51.518;9.864;2022-11-13T10:53:46;14.23;;;11.45;;
20709;SDS011;10516;51.518;9.864;2022-11-13T10:56:28;16.83;;;9.93;;
20709;SDS011;10516;51.518;9.864;2022-11-13T10:59:09;14.13;;;10.85;;
20709;SDS011;10516;51.518;9.864;2022-11-13T11:01:36;11.90;;;10.70;;
20709;SDS011;10516;51.518;9.864;2022-11-13T11:04:07;15.45;;;10.07;;
20709;SDS011;10516;51.518;9.864;2022-11-13T11:06:47;10.45;;;8.80;;
20709;SDS011;10516;51.518;9.864;2022-11-13T11:11:45;16.60;;;10.18;;
20709;SDS011;10516;51.518;9.864;2022-11-13T11:17:21;13.40;;;8.23;;
20709;SDS011;10516;51.518;9.864;2022-11-13T11:19:57;7.32;;;6.57;;
20709;SDS011;10516;51.518;9.864;2022-11-13T11:22:30;11.10;;;8.13;;
20709;SDS011;10516;51.518;9.864;2022-11-13T11:25:36;9.18;;;7.05;;
20709;SDS011;10516;51.518;9.864;2022-11-13T11:28:45;12.48;;;9.48;;
20709;SDS011;10516;51.518;9.864;2022-11-13T11:33:55;10.48;;;7.15;;
20709;SDS011;10516;51.518;9.864;2022-11-13T11:36:31;10.05;;;6.40;;
20709;SDS011;10516;51.518;9.864;2022-11-13T11:41:59;11.48;;;7.63;;
20709;SDS011;10516;51.518;9.864;2022-11-13T11:47:13;10.30;;;7.03;;
20709;SDS011;10516;51.518;9.864;2022-11-13T11:49:40;9.18;;;7.05;;
20709;SDS011;10516;51.518;9.864;2022-11-13T11:52:12;8.57;;;6.53;;
20709;SDS011;10516;51.518;9.864;2022-11-13T11:57:44;9.73;;;7.35;;
20709;SDS011;10516;51.518;9.864;2022-11-13T12:00:21;7.97;;;6.15;;
20709;SDS011;10516;51.518;9.864;2022-11-13T12:11:14;11.38;;;8.63;;
20709;SDS011;10516;51.518;9.864;2022-11-13T12:16:19;11.73;;;8.43;;
20709;SDS011;10516;51.518;9.864;2022-11-13T12:22:06;14.68;;;10.20;;
20709;SDS011;10516;51.518;9.864;2022-11-13T12:24:54;13.85;;;9.77;;
20709;SDS011;10516;51.518;9.864;2022-11-13T12:27:42;14.35;;;9.82;;
20709;SDS011;10516;51.518;9.864;2022-11-13T12:30:17;8.88;;;6.70;;
20709;SDS011;10516;51.518;9.864;2022-11-13T12:35:40;13.02;;;10.25;;
20709;SDS011;10516;51.518;9.864;2022-11-13T12:45:49;11.48;;;8.23;;
20709;SDS011;10516;51.518;9.864;2022-11-13T12:48:33;13.13;;;8.63;;
20709;SDS011;10516;51.518;9.864;2022-11-13T12:51:11;12.13;;;8.23;;
20709;SDS011;10516;51.518;9.864;2022-11-13T12:53:45;11.90;;;8.63;;
20709;SDS011;10516;51.518;9.864;2022-11-13T13:01:20;16.42;;;10.32;;
20709;SDS011;10516;51.518;9.864;2022-11-13T13:12:16;14.43;;;9.85;;
20709;SDS011;10516;51.518;9.864;2022-11-13T13:15:23;19.13;;;9.07;;
20709;SDS011;10516;51.518;9.864;2022-11-13T13:18:04;17.80;;;9.93;;
20709;SDS011;10516;51.518;9.864;2022-11-13T13:20:32;14.23;;;11.48;;
20709;SDS011;10516;51.518;9.864;2022-11-13T13:23:00;17.85;;;13.77;;
20709;SDS011;10516;51.518;9.864;2022-11-13T13:25:30;17.70;;;13.30;;
20709;SDS011;10516;51.518;9.864;2022-11-13T13:28:19;13.45;;;10.52;;
20709;SDS011;10516;51.518;9.864;2022-11-13T13:30:50;13.70;;;10.25;;
20709;SDS011;10516;51.518;9.864;2022-11-13T13:36:44;13.20;;;10.05;;
20709;SDS011;10516;51.518;9.864;2022-11-13T13:39:41;12.93;;;9.57;;
20709;SDS011;10516;51.518;9.864;2022-11-13T13:47:41;13.63;;;9.70;;
20709;SDS011;10516;51.518;9.864;2022-11-13T13:50:26;14.02;;;10.00;;
20709;SDS011;10516;51.518;9.864;2022-11-13T13:52:55;12.35;;;9.65;;
20709;SDS011;10516;51.518;9.864;2022-11-13T13:58:00;11.45;;;8.02;;
20709;SDS011;10516;51.518;9.864;2022-11-13T14:00:30;11.57;;;9.23;;
20709;SDS011;10516;51.518;9.864;2022-11-13T14:02:56;10.60;;;8.40;;
20709;SDS011;10516;51.518;9.864;2022-11-13T14:05:32;9.40;;;8.40;;
20709;SDS011;10516;51.518;9.864;2022-11-13T14:07:59;11.77;;;8.65;;
20709;SDS011;10516;51.518;9.864;2022-11-13T14:10:31;12.05;;;9.45;;
20709;SDS011;10516;51.518;9.864;2022-11-13T14:13:00;11.70;;;8.23;;
20709;SDS011;10516;51.518;9.864;2022-11-13T14:15:27;11.85;;;8.85;;
20709;SDS011;10516;51.518;9.864;2022-11-13T14:20:52;9.70;;;7.65;;
20709;SDS011;10516;51.518;9.864;2022-11-13T14:23:24;11.35;;;9.38;;
20709;SDS011;10516;51.518;9.864;2022-11-13T14:25:52;11.18;;;8.25;;
20709;SDS011;10516;51.518;9.864;2022-11-13T14:28:22;13.30;;;8.15;;
20709;SDS011;10516;51.518;9.864;2022-11-13T14:30:51;12.40;;;8.85;;
20709;SDS011;10516;51.518;9.864;2022-11-13T14:33:42;8.57;;;7.22;;
20709;SDS011;10516;51.518;9.864;2022-11-13T14:36:14;10.80;;;8.68;;
20709;SDS011;10516;51.518;9.864;2022-11-13T14:38:42;13.38;;;9.13;;
20709;SDS011;10516;51.518;9.864;2022-11-13T14:41:15;10.57;;;6.55;;
20709;SDS011;10516;51.518;9.864;2022-11-13T14:44:03;8.77;;;6.95;;
20709;SDS011;10516;51.518;9.864;2022-11-13T14:46:30;8.45;;;6.35;;
20709;SDS011;10516;51.518;9.864;2022-11-13T14:48:57;10.95;;;7.82;;
20709;SDS011;10516;51.518;9.864;2022-11-13T14:51:27;11.77;;;7.47;;
20709;SDS011;10516;51.518;9.864;2022-11-13T14:53:57;9.88;;;6.78;;
20709;SDS011;10516;51.518;9.864;2022-11-13T14:56:38;9.63;;;6.57;;
20709;SDS011;10516;51.518;9.864;2022-11-13T15:02:05;9.55;;;6.47;;
20709;SDS011;10516;51.518;9.864;2022-11-13T15:04:31;7.03;;;6.20;;
20709;SDS011;10516;51.518;9.864;2022-11-13T15:06:58;9.93;;;7.10;;
20709;SDS011;10516;51.518;9.864;2022-11-13T15:09:25;8.93;;;6.78;;
20709;SDS011;10516;51.518;9.864;2022-11-13T15:11:51;9.95;;;7.43;;
20709;SDS011;10516;51.518;9.864;2022-11-13T15:14:17;10.57;;;7.22;;
20709;SDS011;10516;51.518;9.864;2022-11-13T15:16:44;8.48;;;6.50;;
20709;SDS011;10516;51.518;9.864;2022-11-13T15:19:33;9.38;;;7.07;;
20709;SDS011;10516;51.518;9.864;2022-11-13T15:21:59;11.10;;;8.23;;
20709;SDS011;10516;51.518;9.864;2022-11-13T15:24:25;14.13;;;8.18;;
20709;SDS011;10516;51.518;9.864;2022-11-13T15:26:50;12.15;;;8.02;;
20709;SDS011;10516;51.518;9.864;2022-11-13T15:29:16;10.90;;;8.07;;
20709;SDS011;10516;51.518;9.864;2022-11-13T15:31:45;10.68;;;7.30;;
20709;SDS011;10516;51.518;9.864;2022-11-13T15:34:12;9.15;;;6.95;;
20709;SDS011;10516;51.518;9.864;2022-11-13T15:36:39;10.80;;;7.05;;
20709;SDS011;10516;51.518;9.864;2022-11-13T15:39:06;10.88;;;8.10;;
20709;SDS011;10516;51.518;9.864;2022-11-13T15:41:32;9.93;;;7.10;;
20709;SDS011;10516;51.518;9.864;2022-11-13T15:44:00;10.70;;;6.90;;
20709;SDS011;10516;51.518;9.864;2022-11-13T15:46:30;10.98;;;6.53;;
20709;SDS011;10516;51.518;9.864;2022-11-13T15:48:56;6.57;;;5.88;;
20709;SDS011;10516;51.518;9.864;2022-11-13T15:54:18;10.00;;;6.38;;
20709;SDS011;10516;51.518;9.864;2022-11-13T15:56:50;9.68;;;7.25;;
20709;SDS011;10516;51.518;9.864;2022-11-13T15:59:16;7.43;;;6.25;;
20709;SDS011;10516;51.518;9.864;2022-11-13T16:01:41;9.80;;;6.32;;
20709;SDS011;10516;51.518;9.864;2022-11-13T16:04:07;8.55;;;6.72;;
20709;SDS011;10516;51.518;9.864;2022-11-13T16:06:33;9.48;;;7.10;;
20709;SDS011;10516;51.518;9.864;2022-11-13T16:09:00;10.52;;;7.20;;
20709;SDS011;10516;51.518;9.864;2022-11-13T16:11:25;9.10;;;7.10;;
20709;SDS011;10516;51.518;9.864;2022-11-13T16:13:54;10.10;;;7.63;;
20709;SDS011;10516;51.518;9.864;2022-11-13T16:16:23;11.27;;;7.82;;
20709;SDS011;10516;51.518;9.864;2022-11-13T16:18:51;11.00;;;7.32;;
20709;SDS011;10516;51.518;9.864;2022-11-13T16:21:18;11.15;;;7.57;;